Página principal
METAR-TAF:

METAR-TAF

Aeroportos :

Murmansk, Rússia

latitude: 68-58N, longitude: 033-03E, altura: 51 m

Observação actual do tempo

O boletim foi feito há 32 minutos, às 11:30 UTC
Vento 4 kt de norte
Temperatura -14°C
Humidade 78%
Pressão 1044 hPa
Visibilidade 10 km ou mais
Nuvens dispersasa uma altura de 1800 ft, Cumulonimbus.

METAR: ULMM 241130Z 35002MPS 9999 SCT018CB M14/M17 Q1044 R31/490152 NOSIG RMK QFE775

Hora: 15:02 (12:02 UTC)

Previsão

O boletim foi feito há 1 hora e 6 minutos, às 10:56 UTC
Previsão válida de 24 às 12 UTC a 25 às 12 UTC
Vento 6 kt de norte
Visibilidade 10 km ou mais
Nuvens fragmentadasa uma altura de 1100 ft
Temporariamente
de 24 às 12 UTC a 25 às 12 UTC
Vento 2 kt com direcção variável
Visibilidade: 3100 m
Nuvens fragmentadasa uma altura de 1100 ft, Cumulonimbus.
aguaceiros fracos de neve

TAF: ULMM 241056Z 2412/2512 01003MPS 9999 BKN011 TEMPO 2412/2512 VRB01MPS 3100 -SHSN BKN011CB

Observações e previsões do tempo de mais de 4000 aeroportos (mensagens METAR e TAF).

As estações disponíveis são os pontos amarelos e vermelhos sobre o mapa.

Mova o rato sobre o mapa para ver o nome da estação.

Depois clique no ponto para visualizar as observações e previsões meteorológicas.

Para alterar o mapa : clique nos botões verdes com uma cruz preta para aumentar o zoom; no botão verde com uma pitada de zoom; ou nas setas verdes para mapas adjacentes.


METAR-TAF: